sensor_id;sensor_type;location;lat;lon;timestamp;temperature;humidity
63960;DHT22;50136;51.374;0.096;2023-01-15T00:04:25;6.30;99.90
63960;DHT22;50136;51.374;0.096;2023-01-15T00:14:29;6.20;99.90
63960;DHT22;50136;51.374;0.096;2023-01-15T00:24:31;6.10;99.90
63960;DHT22;50136;51.374;0.096;2023-01-15T00:34:34;6.10;99.90
63960;DHT22;50136;51.374;0.096;2023-01-15T00:44:36;6.10;99.90
63960;DHT22;50136;51.374;0.096;2023-01-15T00:54:39;5.90;99.90
63960;DHT22;50136;51.374;0.096;2023-01-15T01:04:41;5.90;99.90
63960;DHT22;50136;51.374;0.096;2023-01-15T01:14:45;5.80;99.90
63960;DHT22;50136;51.374;0.096;2023-01-15T01:24:47;5.70;99.90
63960;DHT22;50136;51.374;0.096;2023-01-15T01:34:50;5.70;99.90
63960;DHT22;50136;51.374;0.096;2023-01-15T01:45:01;5.70;99.90
63960;DHT22;50136;51.374;0.096;2023-01-15T01:55:07;5.60;99.90
63960;DHT22;50136;51.374;0.096;2023-01-15T02:05:11;5.40;99.90
63960;DHT22;50136;51.374;0.096;2023-01-15T02:15:19;5.40;99.90
63960;DHT22;50136;51.374;0.096;2023-01-15T02:25:28;5.30;99.90
63960;DHT22;50136;51.374;0.096;2023-01-15T02:35:39;5.30;99.90
63960;DHT22;50136;51.374;0.096;2023-01-15T02:45:44;5.20;99.90
63960;DHT22;50136;51.374;0.096;2023-01-15T02:55:51;5.20;99.90
63960;DHT22;50136;51.374;0.096;2023-01-15T03:05:58;5.10;99.90
63960;DHT22;50136;51.374;0.096;2023-01-15T03:16:08;5.00;99.90
63960;DHT22;50136;51.374;0.096;2023-01-15T03:26:12;5.00;99.90
63960;DHT22;50136;51.374;0.096;2023-01-15T03:36:16;4.90;99.90
63960;DHT22;50136;51.374;0.096;2023-01-15T03:56:48;4.80;99.90
63960;DHT22;50136;51.374;0.096;2023-01-15T04:06:53;4.80;99.90
63960;DHT22;50136;51.374;0.096;2023-01-15T04:16:57;4.70;99.90
63960;DHT22;50136;51.374;0.096;2023-01-15T04:26:59;4.70;99.90
63960;DHT22;50136;51.374;0.096;2023-01-15T04:37:03;4.60;99.90
63960;DHT22;50136;51.374;0.096;2023-01-15T04:47:05;4.60;99.90
63960;DHT22;50136;51.374;0.096;2023-01-15T04:57:10;4.60;99.90
63960;DHT22;50136;51.374;0.096;2023-01-15T05:07:12;4.60;99.90
63960;DHT22;50136;51.374;0.096;2023-01-15T05:17:15;4.50;99.90
63960;DHT22;50136;51.374;0.096;2023-01-15T05:27:17;4.50;99.90
63960;DHT22;50136;51.374;0.096;2023-01-15T05:37:21;4.50;99.90
63960;DHT22;50136;51.374;0.096;2023-01-15T05:47:23;4.60;99.90
63960;DHT22;50136;51.374;0.096;2023-01-15T05:57:26;4.60;99.90
63960;DHT22;50136;51.374;0.096;2023-01-15T06:07:28;4.70;99.90
63960;DHT22;50136;51.374;0.096;2023-01-15T06:17:31;4.80;99.90
63960;DHT22;50136;51.374;0.096;2023-01-15T06:27:33;4.90;99.90
63960;DHT22;50136;51.374;0.096;2023-01-15T06:37:37;5.00;99.90
63960;DHT22;50136;51.374;0.096;2023-01-15T06:47:39;5.00;99.90
63960;DHT22;50136;51.374;0.096;2023-01-15T06:57:43;4.90;99.90
63960;DHT22;50136;51.374;0.096;2023-01-15T07:07:45;4.80;99.90
63960;DHT22;50136;51.374;0.096;2023-01-15T07:17:48;4.70;99.90
63960;DHT22;50136;51.374;0.096;2023-01-15T07:27:50;4.80;99.90
63960;DHT22;50136;51.374;0.096;2023-01-15T07:37:53;4.80;99.90
63960;DHT22;50136;51.374;0.096;2023-01-15T07:47:55;4.80;99.90
63960;DHT22;50136;51.374;0.096;2023-01-15T07:57:59;4.90;99.90
63960;DHT22;50136;51.374;0.096;2023-01-15T08:08:01;4.90;99.90
63960;DHT22;50136;51.374;0.096;2023-01-15T08:18:04;5.00;99.90
63960;DHT22;50136;51.374;0.096;2023-01-15T08:28:06;5.20;99.90
63960;DHT22;50136;51.374;0.096;2023-01-15T08:38:09;5.30;99.90
63960;DHT22;50136;51.374;0.096;2023-01-15T08:48:11;5.30;99.90
63960;DHT22;50136;51.374;0.096;2023-01-15T08:58:16;5.40;99.90
63960;DHT22;50136;51.374;0.096;2023-01-15T09:08:19;6.00;99.90
63960;DHT22;50136;51.374;0.096;2023-01-15T09:18:22;7.70;99.90
63960;DHT22;50136;51.374;0.096;2023-01-15T09:28:24;8.70;99.90
63960;DHT22;50136;51.374;0.096;2023-01-15T09:38:28;9.70;99.90
63960;DHT22;50136;51.374;0.096;2023-01-15T09:48:38;10.00;99.90
63960;DHT22;50136;51.374;0.096;2023-01-15T09:58:42;10.10;99.90
63960;DHT22;50136;51.374;0.096;2023-01-15T10:08:45;10.50;99.90
63960;DHT22;50136;51.374;0.096;2023-01-15T10:18:49;9.40;99.90
63960;DHT22;50136;51.374;0.096;2023-01-15T10:29:02;10.30;99.90
63960;DHT22;50136;51.374;0.096;2023-01-15T10:39:13;10.80;99.90
63960;DHT22;50136;51.374;0.096;2023-01-15T10:49:17;10.00;99.90
63960;DHT22;50136;51.374;0.096;2023-01-15T10:59:26;10.00;99.90
63960;DHT22;50136;51.374;0.096;2023-01-15T11:09:31;9.30;99.90
63960;DHT22;50136;51.374;0.096;2023-01-15T11:19:37;9.80;99.90
63960;DHT22;50136;51.374;0.096;2023-01-15T11:29:43;10.10;99.90
63960;DHT22;50136;51.374;0.096;2023-01-15T11:39:53;9.40;99.90
63960;DHT22;50136;51.374;0.096;2023-01-15T11:49:55;9.00;99.90
63960;DHT22;50136;51.374;0.096;2023-01-15T11:59:59;8.70;99.90
63960;DHT22;50136;51.374;0.096;2023-01-15T12:10:11;8.40;99.90
63960;DHT22;50136;51.374;0.096;2023-01-15T12:20:22;8.40;99.90
63960;DHT22;50136;51.374;0.096;2023-01-15T12:30:31;8.10;99.90
63960;DHT22;50136;51.374;0.096;2023-01-15T12:40:42;7.90;99.90
63960;DHT22;50136;51.374;0.096;2023-01-15T12:50:47;7.80;99.90
63960;DHT22;50136;51.374;0.096;2023-01-15T13:00:55;8.30;99.90
63960;DHT22;50136;51.374;0.096;2023-01-15T13:11:02;8.20;99.90
63960;DHT22;50136;51.374;0.096;2023-01-15T13:21:11;8.10;99.90
63960;DHT22;50136;51.374;0.096;2023-01-15T13:31:30;8.20;99.90
63960;DHT22;50136;51.374;0.096;2023-01-15T13:41:35;8.50;99.90
63960;DHT22;50136;51.374;0.096;2023-01-15T13:51:37;8.30;99.90
63960;DHT22;50136;51.374;0.096;2023-01-15T14:01:41;8.00;99.90
63960;DHT22;50136;51.374;0.096;2023-01-15T14:11:56;7.90;99.90
63960;DHT22;50136;51.374;0.096;2023-01-15T14:22:12;8.50;99.90
63960;DHT22;50136;51.374;0.096;2023-01-15T14:43:02;8.00;99.90
63960;DHT22;50136;51.374;0.096;2023-01-15T14:53:25;7.70;99.90
63960;DHT22;50136;51.374;0.096;2023-01-15T15:03:33;7.50;99.90
63960;DHT22;50136;51.374;0.096;2023-01-15T15:13:41;7.40;99.90
63960;DHT22;50136;51.374;0.096;2023-01-15T15:23:55;7.40;99.90
63960;DHT22;50136;51.374;0.096;2023-01-15T15:33:59;7.30;99.90
63960;DHT22;50136;51.374;0.096;2023-01-15T15:44:03;7.10;99.90
63960;DHT22;50136;51.374;0.096;2023-01-15T15:54:16;6.80;99.90
63960;DHT22;50136;51.374;0.096;2023-01-15T16:04:20;6.70;99.90
63960;DHT22;50136;51.374;0.096;2023-01-15T16:14:22;6.50;99.90
63960;DHT22;50136;51.374;0.096;2023-01-15T16:25:00;6.30;99.90
63960;DHT22;50136;51.374;0.096;2023-01-15T16:35:05;6.10;99.90
63960;DHT22;50136;51.374;0.096;2023-01-15T16:45:19;5.80;99.90
63960;DHT22;50136;51.374;0.096;2023-01-15T16:55:37;5.50;99.90
63960;DHT22;50136;51.374;0.096;2023-01-15T17:05:41;5.30;99.90
63960;DHT22;50136;51.374;0.096;2023-01-15T17:15:44;5.30;99.90
63960;DHT22;50136;51.374;0.096;2023-01-15T17:25:47;5.20;99.90
63960;DHT22;50136;51.374;0.096;2023-01-15T17:35:49;5.10;99.90
63960;DHT22;50136;51.374;0.096;2023-01-15T17:45:53;5.00;99.90
63960;DHT22;50136;51.374;0.096;2023-01-15T17:55:55;4.90;99.90
63960;DHT22;50136;51.374;0.096;2023-01-15T18:05:58;4.80;99.90
63960;DHT22;50136;51.374;0.096;2023-01-15T18:16:01;4.80;99.90
63960;DHT22;50136;51.374;0.096;2023-01-15T18:26:05;4.80;99.90
63960;DHT22;50136;51.374;0.096;2023-01-15T18:36:09;4.80;99.90
63960;DHT22;50136;51.374;0.096;2023-01-15T18:46:12;4.80;99.90
63960;DHT22;50136;51.374;0.096;2023-01-15T18:56:14;4.80;99.90
63960;DHT22;50136;51.374;0.096;2023-01-15T19:06:18;4.80;99.90
63960;DHT22;50136;51.374;0.096;2023-01-15T19:16:20;4.90;99.90
63960;DHT22;50136;51.374;0.096;2023-01-15T19:26:23;4.90;99.90
63960;DHT22;50136;51.374;0.096;2023-01-15T19:36:25;4.80;99.90
63960;DHT22;50136;51.374;0.096;2023-01-15T19:46:29;4.60;99.90
63960;DHT22;50136;51.374;0.096;2023-01-15T19:56:31;4.50;99.90
63960;DHT22;50136;51.374;0.096;2023-01-15T20:06:35;4.40;99.90
63960;DHT22;50136;51.374;0.096;2023-01-15T20:16:37;4.40;99.90
63960;DHT22;50136;51.374;0.096;2023-01-15T20:26:53;4.20;99.90
63960;DHT22;50136;51.374;0.096;2023-01-15T20:36:55;4.20;99.90
63960;DHT22;50136;51.374;0.096;2023-01-15T20:46:58;4.20;99.90
63960;DHT22;50136;51.374;0.096;2023-01-15T20:57:00;4.10;99.90
63960;DHT22;50136;51.374;0.096;2023-01-15T21:07:03;4.00;99.90
63960;DHT22;50136;51.374;0.096;2023-01-15T21:17:05;3.90;99.90
63960;DHT22;50136;51.374;0.096;2023-01-15T21:27:09;3.80;99.90
63960;DHT22;50136;51.374;0.096;2023-01-15T21:37:13;3.80;99.90
63960;DHT22;50136;51.374;0.096;2023-01-15T21:47:18;3.70;99.90
63960;DHT22;50136;51.374;0.096;2023-01-15T21:57:20;3.70;99.90
63960;DHT22;50136;51.374;0.096;2023-01-15T22:07:23;3.80;99.90
63960;DHT22;50136;51.374;0.096;2023-01-15T22:17:25;3.80;99.90
63960;DHT22;50136;51.374;0.096;2023-01-15T22:27:29;3.70;99.90
63960;DHT22;50136;51.374;0.096;2023-01-15T22:37:31;3.70;99.90
63960;DHT22;50136;51.374;0.096;2023-01-15T22:47:34;3.80;99.90
63960;DHT22;50136;51.374;0.096;2023-01-15T22:57:36;3.90;99.90
63960;DHT22;50136;51.374;0.096;2023-01-15T23:07:39;3.90;99.90
63960;DHT22;50136;51.374;0.096;2023-01-15T23:17:42;3.90;99.90
63960;DHT22;50136;51.374;0.096;2023-01-15T23:27:46;3.90;99.90
63960;DHT22;50136;51.374;0.096;2023-01-15T23:37:48;4.10;99.90
63960;DHT22;50136;51.374;0.096;2023-01-15T23:47:51;4.20;99.90
63960;DHT22;50136;51.374;0.096;2023-01-15T23:57:53;4.30;99.90
